createdAt,value
2023-09-08T00:08:20.410Z,-24163.52
2023-09-08T00:10:48.092Z,-24162.15
2023-09-08T00:13:15.636Z,-24161.22
2023-09-08T00:15:43.237Z,-24160.48
2023-09-08T00:18:11.149Z,-24159.51
2023-09-08T00:20:38.850Z,-24158.61
2023-09-08T00:23:06.348Z,-24157.74
2023-09-08T00:25:33.852Z,-24157.09
2023-09-08T00:28:01.630Z,-24156.66
2023-09-08T00:30:29.140Z,-24155.97
2023-09-08T00:32:56.917Z,-24155.01
2023-09-08T00:35:24.548Z,-24154.36
2023-09-08T00:37:52.067Z,-24153.55
2023-09-08T00:40:19.748Z,-24152.52
2023-09-08T00:42:48.247Z,-24151.34
2023-09-08T00:45:15.785Z,-24150.29
2023-09-08T00:47:43.387Z,-24149.38
2023-09-08T00:50:11.228Z,-24148.36
2023-09-08T00:52:39.000Z,-24147.86
2023-09-08T00:55:06.858Z,-24147.24
2023-09-08T00:57:34.407Z,-24146.68
2023-09-08T01:00:02.002Z,-24146.18
2023-09-08T01:02:29.737Z,-24145.50
2023-09-08T01:04:57.480Z,-24144.97
2023-09-08T01:07:24.986Z,-24144.10
2023-09-08T01:09:52.591Z,-24143.41
2023-09-08T01:12:20.441Z,-24142.69
2023-09-08T01:14:48.194Z,-24141.95
2023-09-08T01:17:15.752Z,-24141.14
2023-09-08T01:19:43.214Z,-24140.24
2023-09-08T01:22:30.351Z,-24139.59
2023-09-08T01:25:13.208Z,-24138.53
2023-09-08T01:27:43.818Z,-24136.94
2023-09-08T01:30:11.348Z,-24135.67
2023-09-08T01:32:38.850Z,-24134.55
2023-09-08T01:35:06.799Z,-24133.31
2023-09-08T01:37:34.292Z,-24132.12
2023-09-08T01:40:01.880Z,-24131.38
2023-09-08T01:42:29.429Z,-24130.91
2023-09-08T01:44:57.059Z,-24129.95
2023-09-08T01:47:24.542Z,-24128.80
2023-09-08T01:49:52.051Z,-24127.46
2023-09-08T01:52:20.582Z,-24126.96
2023-09-08T01:54:48.105Z,-24126.43
2023-09-08T01:57:15.661Z,-24125.87
2023-09-08T01:59:43.151Z,-24125.38
2023-09-08T02:02:10.646Z,-24125.03
2023-09-08T02:04:38.597Z,-24124.72
2023-09-08T02:07:06.254Z,-24124.10
2023-09-08T02:09:34.432Z,-24123.51
2023-09-08T02:12:02.162Z,-24122.76
2023-09-08T02:14:30.141Z,-24122.33
2023-09-08T02:16:58.021Z,-24121.73
2023-09-08T02:19:25.721Z,-24121.27
2023-09-08T02:21:53.264Z,-24120.86
2023-09-08T02:24:20.886Z,-24120.89
2023-09-08T02:26:48.642Z,-24120.86
2023-09-08T02:29:16.432Z,-24120.99
2023-09-08T02:31:44.533Z,-24120.99
2023-09-08T02:34:13.791Z,-24120.71
2023-09-08T02:36:41.585Z,-24120.64
2023-09-08T02:39:09.266Z,-24120.86
2023-09-08T02:41:36.841Z,-24121.24
2023-09-08T02:44:04.988Z,-24121.18
2023-09-08T02:46:32.836Z,-24120.80
2023-09-08T02:49:00.680Z,-24120.64
2023-09-08T02:51:28.871Z,-24120.33
2023-09-08T02:53:56.385Z,-24119.93
2023-09-08T02:56:23.957Z,-24119.68
2023-09-08T02:58:51.435Z,-24119.31
2023-09-08T03:01:21.758Z,-24118.78
2023-09-08T03:03:49.904Z,-24118.46
2023-09-08T03:06:20.351Z,-24118.19
2023-09-08T03:08:47.889Z,-24117.91
2023-09-08T03:11:15.827Z,-24117.31
2023-09-08T03:13:43.545Z,-24116.72
2023-09-08T03:16:12.121Z,-24116.20
2023-09-08T03:18:39.947Z,-24115.61
2023-09-08T03:21:10.996Z,-24115.04
2023-09-08T03:23:39.599Z,-24114.73
2023-09-08T03:26:07.626Z,-24114.55
2023-09-08T03:28:36.012Z,-24114.52
2023-09-08T03:31:04.014Z,-24114.08
2023-09-08T03:33:33.675Z,-24113.77
2023-09-08T03:36:02.204Z,-24113.80
2023-09-08T03:38:30.708Z,-24113.49
2023-09-08T03:40:58.389Z,-24112.71
2023-09-08T03:43:25.969Z,-24112.34
2023-09-08T03:45:53.530Z,-24111.68
2023-09-08T03:48:21.265Z,-24110.87
2023-09-08T03:50:48.736Z,-24109.60
2023-09-08T03:53:16.371Z,-24108.23
2023-09-08T03:55:43.839Z,-24106.42
2023-09-08T03:58:11.330Z,-24105.27
2023-09-08T04:00:38.940Z,-24105.39
2023-09-08T04:03:06.472Z,-24105.77
2023-09-08T04:05:34.040Z,-24106.23
2023-09-08T04:08:02.551Z,-24106.89
2023-09-08T04:10:30.168Z,-24108.17
2023-09-08T04:12:57.779Z,-24108.75
2023-09-08T04:15:25.333Z,-24109.07
2023-09-08T04:17:52.937Z,-24109.26
2023-09-08T04:20:20.942Z,-24109.13
2023-09-08T04:22:48.931Z,-24108.97
2023-09-08T04:25:16.570Z,-24109.10
2023-09-08T04:27:45.795Z,-24109.29
2023-09-08T04:30:14.301Z,-24109.60
2023-09-08T04:32:42.046Z,-24109.29
2023-09-08T04:35:09.765Z,-24109.00
2023-09-08T04:37:38.096Z,-24108.91
2023-09-08T04:40:07.238Z,-24108.76
2023-09-08T04:42:34.847Z,-24109.07
2023-09-08T04:45:02.710Z,-24109.38
2023-09-08T04:47:30.623Z,-24109.97
2023-09-08T04:49:58.374Z,-24111.25
2023-09-08T04:52:26.315Z,-24112.59
2023-09-08T04:54:53.865Z,-24113.83
2023-09-08T04:57:23.832Z,-24115.02
2023-09-08T04:59:54.652Z,-24116.54
2023-09-08T05:02:22.610Z,-24118.25
2023-09-08T05:04:50.296Z,-24120.40
2023-09-08T05:07:20.125Z,-24122.89
2023-09-08T05:09:48.190Z,-24124.75
2023-09-08T05:12:15.975Z,-24127.05
2023-09-08T05:14:43.654Z,-24129.23
2023-09-08T05:17:11.160Z,-24131.66
2023-09-08T05:19:39.365Z,-24133.99
2023-09-08T05:22:08.425Z,-24135.85
2023-09-08T05:24:36.110Z,-24138.53
2023-09-08T05:27:03.997Z,-24140.68
2023-09-08T05:29:31.905Z,-24142.95
2023-09-08T05:31:59.385Z,-24145.19
2023-09-08T05:34:27.053Z,-24147.30
2023-09-08T05:36:54.751Z,-24149.79
2023-09-08T05:39:22.391Z,-24152.12
2023-09-08T05:41:49.924Z,-24154.39
2023-09-08T05:44:17.537Z,-24156.50
2023-09-08T05:46:45.202Z,-24158.55
2023-09-08T05:49:13.201Z,-24160.47
2023-09-08T05:51:40.984Z,-24162.15
2023-09-08T05:54:08.809Z,-24163.18
2023-09-08T05:56:38.118Z,-24164.73
2023-09-08T05:59:05.822Z,-24166.57
2023-09-08T06:01:34.936Z,-24168.86
2023-09-08T06:04:03.915Z,-24171.38
2023-09-08T06:06:32.009Z,-24173.58
2023-09-08T06:08:59.736Z,-24175.22
2023-09-08T06:11:27.868Z,-24176.53
2023-09-08T06:14:03.562Z,-24178.36
2023-09-08T06:16:41.999Z,-24180.63
2023-09-08T06:19:33.076Z,-24183.15
2023-09-08T06:22:13.531Z,-24185.69
2023-09-08T06:24:47.137Z,-24187.93
2023-09-08T06:27:18.579Z,-24189.67
2023-09-08T06:32:44.705Z,-24193.42
2023-09-08T06:35:25.023Z,-24195.35
2023-09-08T06:37:56.876Z,-24197.76
2023-09-08T06:40:39.640Z,-24200.28
2023-09-08T06:43:33.371Z,-24202.76
2023-09-08T06:46:20.601Z,-24205.36
2023-09-08T06:48:50.015Z,-24207.84
2023-09-08T06:51:24.638Z,-24210.45
2023-09-08T06:54:04.337Z,-24212.68
2023-09-08T06:56:43.901Z,-24214.16
2023-09-08T06:59:25.837Z,-24215.90
2023-09-08T07:02:05.374Z,-24218.14
2023-09-08T07:04:44.141Z,-24220.74
2023-09-08T07:07:25.394Z,-24223.62
2023-09-08T07:10:06.707Z,-24226.47
2023-09-08T07:12:49.926Z,-24228.55
2023-09-08T07:15:23.028Z,-24230.93
2023-09-08T07:18:09.032Z,-24233.35
2023-09-08T07:20:51.244Z,-24234.96
2023-09-08T07:23:20.610Z,-24235.58
2023-09-08T07:25:54.932Z,-24236.42
2023-09-08T07:28:44.655Z,-24237.65
2023-09-08T07:31:16.413Z,-24239.61
2023-09-08T07:33:55.156Z,-24240.97
2023-09-08T07:36:26.352Z,-24242.08
2023-09-08T07:39:01.522Z,-24243.11
2023-09-08T07:41:38.224Z,-24245.45
2023-09-08T07:44:10.801Z,-24248.40
2023-09-08T07:46:54.158Z,-24251.38
2023-09-08T07:49:41.904Z,-24253.76
2023-09-08T07:52:36.841Z,-24255.95
2023-09-08T07:55:46.590Z,-24256.76
2023-09-08T07:58:31.728Z,-24257.78
2023-09-08T08:01:42.758Z,-24258.12
2023-09-08T08:04:25.333Z,-24258.64
2023-09-08T08:06:56.698Z,-24260.78
2023-09-08T08:09:24.566Z,-24262.63
2023-09-08T08:11:52.239Z,-24264.71
2023-09-08T08:14:19.877Z,-24266.13
2023-09-08T08:16:47.636Z,-24267.12
2023-09-08T08:19:15.348Z,-24268.11
2023-09-08T08:21:43.714Z,-24269.44
2023-09-08T08:24:11.626Z,-24270.83
2023-09-08T08:26:39.269Z,-24270.71
2023-09-08T08:29:06.925Z,-24270.34
2023-09-08T08:31:34.545Z,-24269.84
2023-09-08T08:34:02.166Z,-24269.53
2023-09-08T08:36:30.185Z,-24270.12
2023-09-08T08:38:57.960Z,-24271.51
2023-09-08T08:41:25.950Z,-24272.50
2023-09-08T08:43:53.514Z,-24272.93
2023-09-08T08:46:22.833Z,-24273.40
2023-09-08T08:48:53.185Z,-24275.01
2023-09-08T08:51:20.822Z,-24276.00
2023-09-08T08:53:48.334Z,-24276.43
2023-09-08T08:56:16.011Z,-24275.90
2023-09-08T08:58:43.668Z,-24275.78
2023-09-08T09:01:12.163Z,-24276.21
2023-09-08T09:03:39.834Z,-24278.31
2023-09-08T09:06:07.469Z,-24280.01
2023-09-08T09:08:35.358Z,-24280.17
2023-09-08T09:11:03.409Z,-24281.41
2023-09-08T09:13:30.974Z,-24284.38
2023-09-08T09:16:02.624Z,-24287.29
2023-09-08T09:18:32.035Z,-24288.27
2023-09-08T09:21:00.774Z,-24289.23
2023-09-08T09:23:32.350Z,-24290.78
2023-09-08T09:26:00.311Z,-24292.22
2023-09-08T09:28:29.788Z,-24293.28
2023-09-08T09:30:59.103Z,-24293.80
2023-09-08T09:33:26.705Z,-24295.38
2023-09-08T09:35:55.053Z,-24298.00
2023-09-08T09:38:23.057Z,-24299.82
2023-09-08T09:40:50.679Z,-24301.06
2023-09-08T09:43:18.646Z,-24302.38
2023-09-08T09:45:46.370Z,-24303.40
2023-09-08T09:48:14.039Z,-24305.29
2023-09-08T09:50:42.787Z,-24307.97
2023-09-08T09:53:12.510Z,-24309.89
2023-09-08T09:55:41.708Z,-24311.13
2023-09-08T09:58:09.505Z,-24312.24
2023-09-08T10:00:38.385Z,-24312.77
2023-09-08T10:03:07.082Z,-24313.81
2023-09-08T10:05:34.858Z,-24315.14
2023-09-08T10:08:02.499Z,-24316.19
2023-09-08T10:10:31.839Z,-24316.96
2023-09-08T10:13:03.426Z,-24317.61
2023-09-08T10:15:31.978Z,-24318.96
2023-09-08T10:18:01.259Z,-24321.22
2023-09-08T10:20:30.010Z,-24323.41
2023-09-08T10:23:18.445Z,-24325.48
2023-09-08T10:25:50.759Z,-24327.76
2023-09-08T10:28:18.231Z,-24329.09
2023-09-08T10:30:45.794Z,-24328.78
2023-09-08T10:33:13.414Z,-24328.35
2023-09-08T10:35:42.063Z,-24329.55
2023-09-08T10:38:26.516Z,-24331.80
2023-09-08T10:40:54.893Z,-24333.56
2023-09-08T10:43:22.474Z,-24334.61
2023-09-08T10:45:50.500Z,-24334.64
2023-09-08T10:48:18.107Z,-24334.76
2023-09-08T10:50:45.950Z,-24336.12
2023-09-08T10:53:17.798Z,-24338.56
2023-09-08T10:56:14.729Z,-24340.47
2023-09-08T10:58:44.669Z,-24341.86
2023-09-08T11:01:20.566Z,-24342.69
2023-09-08T11:03:51.032Z,-24343.80
2023-09-08T11:06:20.236Z,-24345.28
2023-09-08T11:08:48.988Z,-24346.94
2023-09-08T11:11:17.511Z,-24347.90
2023-09-08T11:13:48.397Z,-24348.61
2023-09-08T11:16:17.325Z,-24349.99
2023-09-08T11:18:45.050Z,-24351.32
2023-09-08T11:21:12.750Z,-24352.64
2023-09-08T11:23:40.297Z,-24354.12
2023-09-08T11:26:10.004Z,-24355.23
2023-09-08T11:28:38.301Z,-24356.43
2023-09-08T11:31:06.406Z,-24357.79
2023-09-08T11:33:35.424Z,-24358.49
2023-09-08T11:36:03.026Z,-24359.18
2023-09-08T11:38:31.175Z,-24359.85
2023-09-08T11:40:59.394Z,-24360.56
2023-09-08T11:43:27.128Z,-24361.54
2023-09-08T11:45:54.691Z,-24363.61
2023-09-08T11:48:22.440Z,-24365.58
2023-09-08T11:50:49.945Z,-24366.69
2023-09-08T11:53:20.765Z,-24366.63
2023-09-08T11:55:48.963Z,-24367.15
2023-09-08T11:58:16.826Z,-24369.19
2023-09-08T12:00:44.473Z,-24370.88
2023-09-08T12:03:18.979Z,-24371.16
2023-09-08T12:05:46.537Z,-24371.96
2023-09-08T12:08:14.013Z,-24373.25
2023-09-08T12:10:42.127Z,-24373.89
2023-09-08T12:13:10.737Z,-24374.05
2023-09-08T12:15:39.496Z,-24374.39
2023-09-08T12:18:09.048Z,-24374.82
2023-09-08T12:20:37.681Z,-24375.22
2023-09-08T12:23:20.501Z,-24376.36
2023-09-08T12:25:48.821Z,-24376.88
2023-09-08T12:28:18.680Z,-24376.36
2023-09-08T12:30:46.274Z,-24376.79
2023-09-08T12:33:16.429Z,-24378.51
2023-09-08T12:35:45.780Z,-24380.17
2023-09-08T12:38:14.167Z,-24381.96
2023-09-08T12:40:42.985Z,-24383.56
2023-09-08T12:43:14.094Z,-24384.30
2023-09-08T12:45:50.456Z,-24384.39
2023-09-08T12:48:18.040Z,-24384.52
2023-09-08T12:50:45.621Z,-24384.88
2023-09-08T12:53:13.152Z,-24385.59
2023-09-08T12:55:40.719Z,-24385.99
2023-09-08T12:58:08.222Z,-24387.16
2023-09-08T13:00:35.892Z,-24388.45
2023-09-08T13:03:03.780Z,-24389.44
2023-09-08T13:05:33.547Z,-24388.85
2023-09-08T13:08:01.253Z,-24387.84
2023-09-08T13:10:28.798Z,-24387.99
2023-09-08T13:12:56.499Z,-24388.64
2023-09-08T13:15:24.635Z,-24389.59
2023-09-08T13:17:52.651Z,-24389.99
2023-09-08T13:20:20.906Z,-24390.24
2023-09-08T13:22:48.974Z,-24391.22
2023-09-08T13:25:16.618Z,-24392.02
2023-09-08T13:27:44.210Z,-24392.24
2023-09-08T13:30:15.813Z,-24393.22
2023-09-08T13:32:44.131Z,-24394.24
2023-09-08T13:35:12.499Z,-24394.58
2023-09-08T13:37:40.128Z,-24395.04
2023-09-08T13:40:09.059Z,-24394.98
2023-09-08T13:42:37.567Z,-24395.13
2023-09-08T13:45:06.155Z,-24395.47
2023-09-08T13:47:34.621Z,-24395.87
2023-09-08T13:50:05.766Z,-24395.93
2023-09-08T13:52:37.772Z,-24396.48
2023-09-08T13:57:41.305Z,-24397.53
2023-09-08T14:00:15.231Z,-24398.33
2023-09-08T14:02:50.551Z,-24398.36
2023-09-08T14:05:20.795Z,-24398.36
2023-09-08T14:08:05.327Z,-24398.88
2023-09-08T14:10:40.718Z,-24399.34
2023-09-08T14:13:12.791Z,-24398.57
2023-09-08T14:15:40.475Z,-24398.23
2023-09-08T14:18:08.145Z,-24398.91
2023-09-08T14:20:35.636Z,-24399.71
2023-09-08T14:23:03.596Z,-24400.42
2023-09-08T14:25:31.205Z,-24401.19
2023-09-08T14:28:01.100Z,-24401.83
2023-09-08T14:30:29.119Z,-24402.11
2023-09-08T14:32:56.652Z,-24401.28
2023-09-08T14:35:24.170Z,-24400.26
2023-09-08T14:37:51.741Z,-24399.80
2023-09-08T14:40:19.243Z,-24399.96
2023-09-08T14:42:46.874Z,-24400.36
2023-09-08T14:45:14.415Z,-24400.97
2023-09-08T14:47:42.105Z,-24401.34
2023-09-08T14:50:10.564Z,-24401.34
2023-09-08T14:52:38.114Z,-24401.28
2023-09-08T14:55:05.830Z,-24400.91
2023-09-08T14:57:33.554Z,-24400.36
2023-09-08T15:00:01.140Z,-24400.05
2023-09-08T15:02:28.712Z,-24400.02
2023-09-08T15:04:56.316Z,-24399.83
2023-09-08T15:07:24.012Z,-24399.56
2023-09-08T15:09:51.493Z,-24399.62
2023-09-08T15:12:19.125Z,-24399.59
2023-09-08T15:14:46.677Z,-24399.25
2023-09-08T15:17:14.282Z,-24398.91
2023-09-08T15:19:41.878Z,-24398.70
2023-09-08T15:22:09.403Z,-24398.08
2023-09-08T15:24:36.900Z,-24397.84
2023-09-08T15:27:04.942Z,-24397.44
2023-09-08T15:29:32.616Z,-24396.85
2023-09-08T15:32:00.233Z,-24396.14
2023-09-08T15:34:27.779Z,-24395.46
2023-09-08T15:36:55.533Z,-24394.79
2023-09-08T15:39:23.374Z,-24394.21
2023-09-08T15:41:51.420Z,-24393.50
2023-09-08T15:44:19.523Z,-24392.86
2023-09-08T15:46:47.380Z,-24392.43
2023-09-08T15:49:15.422Z,-24392.33
2023-09-08T15:51:42.968Z,-24391.71
2023-09-08T15:57:13.892Z,-24390.33
2023-09-08T15:59:41.681Z,-24388.73
2023-09-08T16:02:09.554Z,-24387.68
2023-09-08T16:04:37.685Z,-24386.91
2023-09-08T16:07:05.780Z,-24386.21
2023-09-08T16:09:33.333Z,-24385.22
2023-09-08T16:12:00.920Z,-24384.02
2023-09-08T16:14:28.413Z,-24383.07
2023-09-08T16:16:56.144Z,-24382.08
2023-09-08T16:19:23.722Z,-24381.44
2023-09-08T16:21:52.298Z,-24380.48
2023-09-08T16:24:19.750Z,-24379.50
2023-09-08T16:26:47.326Z,-24378.27
2023-09-08T16:29:14.927Z,-24377.40
2023-09-08T16:31:42.532Z,-24376.54
2023-09-08T16:34:10.091Z,-24375.49
2023-09-08T16:36:37.669Z,-24374.63
2023-09-08T16:39:05.539Z,-24373.71
2023-09-08T16:41:33.026Z,-24372.63
2023-09-08T16:44:00.494Z,-24371.80
2023-09-08T16:46:28.344Z,-24371.16
2023-09-08T16:48:55.913Z,-24370.39
2023-09-08T16:51:23.526Z,-24369.43
2023-09-08T16:53:50.996Z,-24368.54
2023-09-08T16:56:18.674Z,-24367.49
2023-09-08T16:58:46.272Z,-24366.63
2023-09-08T17:01:13.767Z,-24365.98
2023-09-08T17:03:41.710Z,-24365.28
2023-09-08T17:06:09.668Z,-24364.91
2023-09-08T17:08:37.113Z,-24364.17
2023-09-08T17:11:05.589Z,-24363.46
2023-09-08T17:13:34.609Z,-24362.87
2023-09-08T17:16:03.301Z,-24362.07
2023-09-08T17:18:31.287Z,-24361.67
2023-09-08T17:20:59.338Z,-24361.05
2023-09-08T17:23:27.124Z,-24360.16
2023-09-08T17:25:54.827Z,-24359.20
2023-09-08T17:28:22.583Z,-24358.21
2023-09-08T17:30:50.113Z,-24357.17
2023-09-08T17:33:17.707Z,-24356.18
2023-09-08T17:35:45.314Z,-24355.51
2023-09-08T17:38:12.932Z,-24354.61
2023-09-08T17:40:40.469Z,-24353.88
2023-09-08T17:43:08.220Z,-24352.95
2023-09-08T17:45:35.944Z,-24352.06
2023-09-08T17:48:03.663Z,-24351.16
2023-09-08T17:50:31.274Z,-24350.30
2023-09-08T17:52:58.873Z,-24349.44
2023-09-08T17:55:26.415Z,-24348.27
2023-09-08T17:57:54.217Z,-24347.46
2023-09-08T18:00:21.833Z,-24346.60
2023-09-08T18:02:49.614Z,-24345.49
2023-09-08T18:05:17.435Z,-24344.72
2023-09-08T18:07:46.178Z,-24344.02
2023-09-08T18:10:15.187Z,-24343.58
2023-09-08T18:12:42.871Z,-24342.97
2023-09-08T18:15:11.272Z,-24342.26
2023-09-08T18:17:38.871Z,-24341.70
2023-09-08T18:20:06.953Z,-24340.87
2023-09-08T18:22:35.326Z,-24340.16
2023-09-08T18:25:02.934Z,-24339.21
2023-09-08T18:27:31.320Z,-24338.34
2023-09-08T18:29:58.969Z,-24337.17
2023-09-08T18:32:26.733Z,-24336.03
2023-09-08T18:34:55.050Z,-24335.13
2023-09-08T18:37:22.826Z,-24333.87
2023-09-08T18:39:50.461Z,-24332.85
2023-09-08T18:42:18.040Z,-24331.68
2023-09-08T18:44:45.630Z,-24330.60
2023-09-08T18:47:13.210Z,-24329.43
2023-09-08T18:49:40.786Z,-24327.97
2023-09-08T18:52:08.300Z,-24326.68
2023-09-08T18:54:35.836Z,-24325.57
2023-09-08T18:57:03.554Z,-24324.71
2023-09-08T18:59:31.053Z,-24323.60
2023-09-08T19:01:59.307Z,-24322.57
2023-09-08T19:04:27.041Z,-24321.65
2023-09-08T19:06:56.877Z,-24320.82
2023-09-08T19:09:24.950Z,-24319.89
2023-09-08T19:11:52.715Z,-24318.35
2023-09-08T19:14:26.266Z,-24317.09
2023-09-08T19:16:55.638Z,-24315.60
2023-09-08T19:19:23.334Z,-24314.34
2023-09-08T19:21:50.846Z,-24312.86
2023-09-08T19:24:18.991Z,-24311.59
2023-09-08T19:26:46.600Z,-24310.20
2023-09-08T19:29:14.108Z,-24308.71
2023-09-08T19:31:41.877Z,-24307.63
2023-09-08T19:34:09.687Z,-24306.62
2023-09-08T19:36:38.747Z,-24305.75
2023-09-08T19:39:08.189Z,-24304.43
2023-09-08T19:41:36.946Z,-24303.22
2023-09-08T19:44:05.256Z,-24301.77
2023-09-08T19:46:39.624Z,-24300.10
2023-09-08T19:49:07.523Z,-24298.40
2023-09-08T19:51:35.160Z,-24296.83
2023-09-08T19:54:03.427Z,-24294.97
2023-09-08T19:56:30.929Z,-24292.29
2023-09-08T19:58:59.909Z,-24289.51
2023-09-08T20:01:29.038Z,-24287.50
2023-09-08T20:07:23.107Z,-24287.13
2023-09-08T20:09:52.838Z,-24284.75
2023-09-08T20:12:22.636Z,-24283.76
2023-09-08T20:14:49.466Z,-24282.77
2023-09-08T20:17:16.567Z,-24282.09
2023-09-08T20:19:43.413Z,-24281.44
2023-09-08T20:22:11.691Z,-24280.72
2023-09-08T20:24:40.266Z,-24279.55
2023-09-08T20:27:11.136Z,-24278.62
2023-09-08T20:29:38.692Z,-24278.00
2023-09-08T20:32:06.729Z,-24277.11
2023-09-08T20:34:33.496Z,-24276.30
2023-09-08T20:37:00.205Z,-24275.65
2023-09-08T20:39:27.050Z,-24275.01
2023-09-08T20:41:54.187Z,-24274.45
2023-09-08T20:44:21.050Z,-24273.61
2023-09-08T20:46:47.796Z,-24273.24
2023-09-08T20:49:17.184Z,-24272.62
2023-09-08T20:51:43.873Z,-24271.95
2023-09-08T20:54:10.620Z,-24271.36
2023-09-08T20:56:38.505Z,-24270.55
2023-09-08T20:59:05.537Z,-24270.03
2023-09-08T21:01:32.449Z,-24269.41
2023-09-08T21:03:59.627Z,-24268.97
2023-09-08T21:06:27.261Z,-24268.11
2023-09-08T21:08:53.993Z,-24267.37
2023-09-08T21:11:21.100Z,-24266.84
2023-09-08T21:13:47.886Z,-24265.95
2023-09-08T21:16:14.537Z,-24264.68
2023-09-08T21:18:41.486Z,-24263.25
2023-09-08T21:21:08.242Z,-24262.05
2023-09-08T21:23:35.209Z,-24260.87
2023-09-08T21:26:05.162Z,-24259.73
2023-09-08T21:28:32.501Z,-24258.71
2023-09-08T21:31:05.162Z,-24258.09
2023-09-08T21:33:32.078Z,-24257.31
2023-09-08T21:35:58.883Z,-24256.94
2023-09-08T21:38:25.566Z,-24256.36
2023-09-08T21:40:53.209Z,-24255.49
2023-09-08T21:43:19.848Z,-24254.38
2023-09-08T21:45:51.578Z,-24253.45
2023-09-08T21:48:19.072Z,-24252.80
2023-09-08T21:50:46.235Z,-24252.33
2023-09-08T21:53:12.950Z,-24251.90
2023-09-08T21:55:39.677Z,-24251.65
2023-09-08T21:58:06.378Z,-24251.31
2023-09-08T22:00:33.386Z,-24250.97
2023-09-08T22:03:00.664Z,-24250.94
2023-09-08T22:05:28.122Z,-24250.57
2023-09-08T22:07:54.987Z,-24250.26
2023-09-08T22:10:22.389Z,-24249.57
2023-09-08T22:12:49.306Z,-24249.17
2023-09-08T22:15:16.235Z,-24249.20
2023-09-08T22:17:43.303Z,-24248.93
2023-09-08T22:20:14.408Z,-24248.06
2023-09-08T22:22:41.627Z,-24247.63
2023-09-08T22:25:11.564Z,-24246.51
2023-09-08T22:27:39.003Z,-24245.18
2023-09-08T22:30:06.597Z,-24244.40
2023-09-08T22:32:33.519Z,-24243.66
2023-09-08T22:35:00.285Z,-24242.92
2023-09-08T22:37:26.964Z,-24242.11
2023-09-08T22:39:53.640Z,-24240.69
2023-09-08T22:42:20.187Z,-24239.73
2023-09-08T22:44:46.835Z,-24238.95
2023-09-08T22:47:13.518Z,-24238.46
2023-09-08T22:49:55.597Z,-24237.93
2023-09-08T22:52:22.362Z,-24237.22
2023-09-08T22:54:49.129Z,-24236.26
2023-09-08T22:57:15.845Z,-24235.43
2023-09-08T22:59:42.787Z,-24234.74
2023-09-08T23:02:09.598Z,-24233.60
2023-09-08T23:04:36.731Z,-24232.39
2023-09-08T23:07:04.102Z,-24230.78
2023-09-08T23:09:30.783Z,-24229.29
2023-09-08T23:11:58.200Z,-24228.15
2023-09-08T23:14:25.159Z,-24226.78
2023-09-08T23:16:53.219Z,-24225.98
2023-09-08T23:19:20.755Z,-24225.61
2023-09-08T23:21:48.045Z,-24224.96
2023-09-08T23:24:14.806Z,-24224.43
2023-09-08T23:26:41.662Z,-24223.71
2023-09-08T23:29:08.281Z,-24223.41
2023-09-08T23:31:35.238Z,-24223.04
2023-09-08T23:34:02.725Z,-24222.63
2023-09-08T23:36:29.755Z,-24222.23
2023-09-08T23:38:56.314Z,-24221.73
2023-09-08T23:41:23.072Z,-24221.36
2023-09-08T23:43:50.671Z,-24220.59
2023-09-08T23:46:17.486Z,-24219.94
2023-09-08T23:48:44.584Z,-24219.13
2023-09-08T23:51:11.207Z,-24218.02
2023-09-08T23:53:39.708Z,-24216.93
2023-09-08T23:56:06.641Z,-24215.93
2023-09-08T23:58:33.602Z,-24215.03
